Time;durP1;ratioP1;P1;durP2;ratioP2;P2;SDS_P1;SDS_P2;PMS_P1;PMS_P2;Temp;Humidity;BMP_temperature;BMP_pressure;BME280_temperature;BME280_humidity;BME280_pressure;Samples;Min_cycle;Max_cycle;Signal;HPM_P1;HPM_P2
2021/06/12 00:02:24;;;;;;;1.05;0.90;;;19.20;69.30;;;;;;5033178;28;20021;-74
2021/06/12 00:04:50;;;;;;;2.05;1.77;;;19.10;69.30;;;;;;5033585;28;20045;-76
2021/06/12 00:07:16;;;;;;;1.02;0.95;;;19.20;69.50;;;;;;5033675;28;20053;-75
2021/06/12 00:09:44;;;;;;;1.30;1.20;;;19.20;69.50;;;;;;5033359;28;20466;-75
2021/06/12 00:12:10;;;;;;;1.10;0.98;;;19.20;69.70;;;;;;5033529;28;20026;-75
2021/06/12 00:14:35;;;;;;;1.42;1.33;;;19.10;69.70;;;;;;5033471;28;20047;-75
2021/06/12 00:17:01;;;;;;;1.60;1.38;;;19.10;69.80;;;;;;5033041;28;20540;-75
2021/06/12 00:19:27;;;;;;;1.40;1.30;;;19.10;69.90;;;;;;5033413;28;20474;-76
2021/06/12 00:21:53;;;;;;;1.10;1.10;;;19.10;70.00;;;;;;5033448;28;20092;-75
2021/06/12 00:24:19;;;;;;;1.35;1.08;;;19.10;70.10;;;;;;5033427;28;20057;-76
2021/06/12 00:26:44;;;;;;;1.38;1.10;;;19.10;70.10;;;;;;5033184;28;20053;-76
2021/06/12 00:29:12;;;;;;;1.20;1.08;;;19.10;70.10;;;;;;5032699;28;20047;-76
2021/06/12 00:31:38;;;;;;;1.10;1.05;;;19.10;70.10;;;;;;5032804;28;20030;-75
2021/06/12 00:34:03;;;;;;;1.77;1.20;;;19.00;70.10;;;;;;5033337;28;20029;-75
2021/06/12 00:36:29;;;;;;;0.75;0.75;;;19.00;70.20;;;;;;5033275;28;20075;-75
2021/06/12 00:38:54;;;;;;;1.85;0.90;;;18.90;70.20;;;;;;5033122;28;20402;-76
2021/06/12 00:41:22;;;;;;;1.30;1.17;;;19.00;70.20;;;;;;5033113;28;20402;-76
2021/06/12 00:43:51;;;;;;;1.95;1.30;;;18.90;70.30;;;;;;5033231;28;20028;-77
2021/06/12 00:46:17;;;;;;;1.80;1.25;;;18.90;70.30;;;;;;5033280;28;20108;-76
2021/06/12 00:48:44;;;;;;;2.00;1.58;;;18.80;70.40;;;;;;5032944;28;20455;-75
2021/06/12 00:51:09;;;;;;;1.10;1.00;;;18.80;70.60;;;;;;5033022;28;20065;-75
2021/06/12 00:53:41;;;;;;;0.80;0.80;;;18.80;70.60;;;;;;5032961;28;20053;-74
2021/06/12 00:56:12;;;;;;;1.30;1.10;;;18.80;70.70;;;;;;5033046;28;20029;-75
2021/06/12 00:58:43;;;;;;;1.65;1.13;;;18.70;70.70;;;;;;5032616;28;20018;-76
2021/06/12 01:01:10;;;;;;;1.17;0.90;;;18.70;70.90;;;;;;5033077;28;20029;-76
2021/06/12 01:03:39;;;;;;;1.70;1.20;;;18.60;71.00;;;;;;5032859;28;20028;-75
2021/06/12 01:06:06;;;;;;;1.10;1.05;;;18.60;71.10;;;;;;5032803;28;20025;-74
2021/06/12 01:08:32;;;;;;;2.13;1.23;;;18.60;71.30;;;;;;5032863;28;20087;-74
2021/06/12 01:10:57;;;;;;;1.35;1.25;;;18.50;71.40;;;;;;5032833;28;20486;-75
2021/06/12 01:13:45;;;;;;;2.00;1.48;;;18.50;71.60;;;;;;5014551;28;20024;-75
2021/06/12 01:16:18;;;;;;;2.28;1.50;;;18.40;71.70;;;;;;5032678;28;20041;-75
2021/06/12 01:18:45;;;;;;;1.17;1.08;;;18.40;71.80;;;;;;5032791;28;20021;-76
2021/06/12 01:21:14;;;;;;;2.30;1.55;;;18.40;71.90;;;;;;5032722;28;20021;-76
2021/06/12 01:23:55;;;;;;;1.77;1.55;;;18.40;72.00;;;;;;5032591;28;20018;-75
2021/06/12 01:26:38;;;;;;;1.70;1.30;;;18.30;72.00;;;;;;5032738;28;20026;-75
2021/06/12 01:29:20;;;;;;;1.88;1.30;;;18.30;72.00;;;;;;5014251;28;20021;-75
2021/06/12 01:31:48;;;;;;;1.73;1.40;;;18.30;72.20;;;;;;5032641;28;20034;-75
2021/06/12 01:34:14;;;;;;;1.40;1.30;;;18.30;72.30;;;;;;5032568;28;20120;-74
2021/06/12 01:36:44;;;;;;;1.52;1.42;;;18.30;72.30;;;;;;5032753;28;20494;-75
2021/06/12 01:39:10;;;;;;;2.33;1.42;;;18.30;72.40;;;;;;5033542;28;20021;-76
2021/06/12 01:41:38;;;;;;;2.45;1.67;;;18.30;72.20;;;;;;5036203;28;20390;-75
2021/06/12 01:44:05;;;;;;;1.30;1.13;;;18.40;72.80;;;;;;5017958;28;20409;-74
2021/06/12 01:46:30;;;;;;;1.52;1.27;;;18.40;72.10;;;;;;5036217;28;20025;-75
2021/06/12 01:48:58;;;;;;;1.25;1.02;;;18.50;72.00;;;;;;5035994;28;20028;-76
2021/06/12 01:51:25;;;;;;;1.15;1.08;;;18.50;72.00;;;;;;5036123;28;20040;-75
2021/06/12 01:53:54;;;;;;;1.10;1.00;;;18.50;72.00;;;;;;5018343;28;20435;-75
2021/06/12 01:56:22;;;;;;;1.25;0.95;;;18.60;72.00;;;;;;5035454;28;20033;-78
2021/06/12 01:58:49;;;;;;;1.17;1.05;;;18.60;72.00;;;;;;5035867;28;20032;-75
2021/06/12 02:01:17;;;;;;;1.48;1.38;;;18.60;72.00;;;;;;5035818;28;20021;-76
2021/06/12 02:03:45;;;;;;;1.40;1.20;;;18.60;72.10;;;;;;5018155;28;20072;-76
2021/06/12 02:06:13;;;;;;;1.65;1.10;;;18.60;72.20;;;;;;5017989;28;20402;-74
2021/06/12 02:08:40;;;;;;;1.27;1.17;;;18.60;72.20;;;;;;5035740;28;20021;-75
2021/06/12 02:11:06;;;;;;;1.25;1.15;;;18.60;72.30;;;;;;5017206;28;20068;-76
2021/06/12 02:13:32;;;;;;;1.92;1.50;;;18.60;72.40;;;;;;5035715;28;20024;-75
2021/06/12 02:15:59;;;;;;;1.58;1.48;;;18.60;72.40;;;;;;5035661;28;20116;-74
2021/06/12 02:18:27;;;;;;;1.83;1.30;;;18.60;72.60;;;;;;5035663;28;20017;-75
2021/06/12 02:20:54;;;;;;;1.80;1.60;;;18.60;72.70;;;;;;5035716;28;20029;-75
2021/06/12 02:23:22;;;;;;;2.45;1.38;;;18.60;72.70;;;;;;5035469;28;20025;-76
2021/06/12 02:25:50;;;;;;;1.37;1.27;;;18.60;72.80;;;;;;5034922;28;20028;-76
2021/06/12 02:28:17;;;;;;;1.05;0.95;;;18.60;72.90;;;;;;5017702;28;20078;-76
2021/06/12 02:31:08;;;;;;;1.88;1.42;;;18.50;72.80;;;;;;5035002;28;20045;-75
2021/06/12 02:33:36;;;;;;;1.40;1.10;;;18.60;72.90;;;;;;5035396;28;20021;-75
2021/06/12 02:36:02;;;;;;;1.05;0.95;;;18.60;72.90;;;;;;5035218;28;20375;-75
2021/06/12 02:38:29;;;;;;;2.25;1.58;;;18.50;72.90;;;;;;5035064;28;20018;-76
2021/06/12 02:40:57;;;;;;;1.20;1.10;;;18.50;73.00;;;;;;5034772;28;20030;-76
2021/06/12 02:43:23;;;;;;;1.20;1.10;;;18.60;73.10;;;;;;5035186;28;20029;-76
2021/06/12 02:45:48;;;;;;;1.60;1.23;;;18.60;73.00;;;;;;5035120;28;20505;-75
2021/06/12 02:48:16;;;;;;;1.10;0.90;;;18.60;73.00;;;;;;5034952;28;20026;-76
2021/06/12 02:50:45;;;;;;;2.53;1.40;;;18.50;73.00;;;;;;5034525;28;20029;-75
2021/06/12 02:53:12;;;;;;;1.42;1.17;;;18.60;73.20;;;;;;5035047;28;20036;-76
2021/06/12 02:55:44;;;;;;;2.28;1.52;;;18.60;73.20;;;;;;5034462;28;20053;-75
2021/06/12 02:58:12;;;;;;;2.20;1.50;;;18.60;73.30;;;;;;5034878;28;20030;-76
2021/06/12 03:00:39;;;;;;;1.42;1.30;;;18.50;73.40;;;;;;5034726;28;20075;-75
2021/06/12 03:03:05;;;;;;;1.33;1.20;;;18.50;73.40;;;;;;5034644;28;20024;-75
2021/06/12 03:05:35;;;;;;;1.95;1.42;;;18.50;73.50;;;;;;5034638;28;20057;-74
2021/06/12 03:08:01;;;;;;;2.72;1.70;;;18.50;73.50;;;;;;5034649;28;20025;-75
2021/06/12 03:10:31;;;;;;;1.73;1.20;;;18.50;73.50;;;;;;5033957;28;20061;-77
2021/06/12 03:13:00;;;;;;;2.08;1.27;;;18.50;73.60;;;;;;5034660;28;20387;-75
2021/06/12 03:15:27;;;;;;;2.13;1.30;;;18.50;73.60;;;;;;5034343;28;20083;-76
2021/06/12 03:17:54;;;;;;;2.67;1.25;;;18.50;73.70;;;;;;5034499;28;20036;-76
2021/06/12 03:20:20;;;;;;;1.55;1.45;;;18.50;73.70;;;;;;5034482;28;20100;-77
2021/06/12 03:22:48;;;;;;;2.45;1.75;;;18.50;73.60;;;;;;5034644;28;20026;-77
2021/06/12 03:25:15;;;;;;;1.35;1.25;;;18.60;73.80;;;;;;5033980;28;20026;-76
2021/06/12 03:27:42;;;;;;;1.85;1.27;;;18.50;73.70;;;;;;5034196;28;20075;-75
2021/06/12 03:30:09;;;;;;;1.48;1.25;;;18.50;73.70;;;;;;5033885;28;20096;-76
2021/06/12 03:32:35;;;;;;;3.97;1.40;;;18.50;73.70;;;;;;5034226;28;20128;-75
2021/06/12 03:35:01;;;;;;;1.88;1.10;;;18.50;73.90;;;;;;5034352;28;20030;-75
2021/06/12 03:37:28;;;;;;;1.27;1.13;;;18.50;73.90;;;;;;5034014;28;20478;-76
2021/06/12 03:39:54;;;;;;;1.40;1.10;;;18.50;73.90;;;;;;5033539;28;20093;-74
2021/06/12 03:42:21;;;;;;;1.60;1.20;;;18.50;73.90;;;;;;5033901;28;20513;-75
2021/06/12 03:44:49;;;;;;;2.00;1.42;;;18.50;74.00;;;;;;5033883;28;20105;-74
2021/06/12 03:47:15;;;;;;;1.05;1.02;;;18.50;74.00;;;;;;5016260;28;20064;-75
2021/06/12 03:49:42;;;;;;;1.65;1.30;;;18.50;74.00;;;;;;5033776;28;20060;-75
2021/06/12 03:52:08;;;;;;;2.15;1.17;;;18.50;74.00;;;;;;5033721;28;20033;-74
2021/06/12 03:54:36;;;;;;;1.50;1.25;;;18.50;74.00;;;;;;5033206;28;20057;-74
2021/06/12 03:57:02;;;;;;;1.65;1.15;;;18.50;74.00;;;;;;5033728;28;20446;-76
2021/06/12 03:59:28;;;;;;;1.75;1.10;;;18.60;74.00;;;;;;5033735;28;20076;-75
2021/06/12 04:01:55;;;;;;;1.33;1.20;;;18.60;74.00;;;;;;5033371;28;20021;-76
2021/06/12 04:04:22;;;;;;;2.25;1.40;;;18.60;74.00;;;;;;5032828;28;20025;-75
2021/06/12 04:06:51;;;;;;;2.58;1.58;;;18.60;74.00;;;;;;5033551;28;20021;-76
2021/06/12 04:09:17;;;;;;;2.00;1.20;;;18.70;74.00;;;;;;5033561;28;20068;-74
2021/06/12 04:11:42;;;;;;;1.95;1.48;;;18.70;74.00;;;;;;5033279;28;20072;-75
2021/06/12 04:14:08;;;;;;;2.58;1.25;;;18.70;74.00;;;;;;5033486;28;20029;-75
2021/06/12 04:16:34;;;;;;;1.50;1.40;;;18.70;74.10;;;;;;5033417;28;20017;-74
2021/06/12 04:19:00;;;;;;;1.48;1.23;;;18.70;74.00;;;;;;5033418;28;20355;-76
2021/06/12 04:21:26;;;;;;;1.63;1.48;;;18.70;74.00;;;;;;5032998;28;20022;-76
2021/06/12 04:23:51;;;;;;;1.20;1.00;;;18.70;74.10;;;;;;5033274;28;20097;-76
2021/06/12 04:26:17;;;;;;;2.83;1.65;;;18.70;74.20;;;;;;5033230;28;20034;-75
2021/06/12 04:28:43;;;;;;;2.92;1.65;;;18.70;74.20;;;;;;5033121;28;20022;-75
2021/06/12 04:31:08;;;;;;;1.95;1.60;;;18.70;74.10;;;;;;5033010;28;20056;-76
2021/06/12 04:33:34;;;;;;;1.92;1.48;;;18.80;74.20;;;;;;5033282;28;20087;-74
2021/06/12 04:36:00;;;;;;;1.88;1.63;;;18.80;74.20;;;;;;5032788;28;20060;-76
2021/06/12 04:38:25;;;;;;;2.40;1.92;;;18.80;74.20;;;;;;5033101;28;20466;-75
2021/06/12 04:40:51;;;;;;;1.80;1.27;;;18.80;74.20;;;;;;5032967;28;20030;-74
2021/06/12 04:43:17;;;;;;;2.40;1.88;;;18.90;74.10;;;;;;5033229;28;20096;-76
2021/06/12 04:45:42;;;;;;;3.13;2.00;;;18.90;74.00;;;;;;5033053;28;20021;-76
2021/06/12 04:48:08;;;;;;;2.85;1.95;;;18.90;74.10;;;;;;5033115;28;20474;-76
2021/06/12 04:50:37;;;;;;;3.17;1.95;;;18.90;74.20;;;;;;5032561;28;20448;-75
2021/06/12 04:53:04;;;;;;;2.23;1.80;;;18.80;74.20;;;;;;5033029;28;20492;-76
2021/06/12 04:55:30;;;;;;;2.03;1.75;;;18.80;74.40;;;;;;5033081;28;20027;-76
2021/06/12 04:57:55;;;;;;;2.78;1.83;;;18.80;74.50;;;;;;5033132;28;20493;-74
2021/06/12 05:00:21;;;;;;;2.30;1.75;;;18.80;74.50;;;;;;5033243;28;20035;-75
2021/06/12 05:02:47;;;;;;;2.28;1.70;;;18.80;74.50;;;;;;5032877;28;20021;-76
2021/06/12 05:05:13;;;;;;;2.28;1.80;;;18.80;74.50;;;;;;5032682;28;20084;-75
2021/06/12 05:07:38;;;;;;;2.17;1.98;;;18.80;74.50;;;;;;5032764;28;20497;-75
2021/06/12 05:10:06;;;;;;;2.58;1.90;;;18.80;74.60;;;;;;5032754;28;20032;-75
2021/06/12 05:12:31;;;;;;;2.50;2.30;;;18.80;74.70;;;;;;5032901;28;20034;-75
2021/06/12 05:15:00;;;;;;;3.95;2.45;;;18.80;74.80;;;;;;5034827;28;20359;-74
2021/06/12 05:17:26;;;;;;;6.43;2.88;;;18.70;74.80;;;;;;5019484;28;20083;-75
2021/06/12 05:19:52;;;;;;;2.40;2.20;;;18.70;74.80;;;;;;5036249;28;20060;-76
2021/06/12 05:22:22;;;;;;;2.50;1.90;;;18.70;74.90;;;;;;5018970;28;20029;-75
2021/06/12 05:24:49;;;;;;;3.53;2.35;;;18.70;74.90;;;;;;5036555;28;20112;-76
2021/06/12 05:27:15;;;;;;;2.92;1.73;;;18.70;74.90;;;;;;5036434;28;20021;-76
2021/06/12 05:29:40;;;;;;;2.85;1.88;;;18.80;74.80;;;;;;5018586;28;20183;-76
2021/06/12 05:32:06;;;;;;;1.63;1.52;;;18.80;74.70;;;;;;5036383;28;20045;-74
2021/06/12 05:34:32;;;;;;;2.13;1.85;;;18.80;74.60;;;;;;5036193;28;20029;-75
2021/06/12 05:36:59;;;;;;;2.17;1.80;;;18.90;74.50;;;;;;5036247;28;20025;-74
2021/06/12 05:39:24;;;;;;;2.15;1.60;;;19.00;74.40;;;;;;5036309;28;20033;-75
2021/06/12 05:41:50;;;;;;;2.85;2.38;;;19.00;74.40;;;;;;5036470;28;20033;-75
2021/06/12 05:44:15;;;;;;;3.72;2.25;;;19.00;74.60;;;;;;5036218;28;20025;-75
2021/06/12 05:46:43;;;;;;;1.95;1.75;;;18.90;74.80;;;;;;5018372;28;20087;-75
2021/06/12 05:49:09;;;;;;;2.97;2.20;;;18.90;75.00;;;;;;5035617;28;20505;-75
2021/06/12 05:51:35;;;;;;;3.83;2.05;;;18.90;74.90;;;;;;5036078;28;20030;-75
2021/06/12 05:54:00;;;;;;;3.08;1.95;;;19.00;74.90;;;;;;5036156;28;20105;-74
2021/06/12 05:56:26;;;;;;;2.08;1.80;;;19.00;74.70;;;;;;5036106;28;20502;-76
2021/06/12 05:58:51;;;;;;;1.90;1.67;;;19.10;74.60;;;;;;5036049;28;20135;-74
2021/06/12 06:01:17;;;;;;;1.50;1.40;;;19.20;74.50;;;;;;5035985;28;20025;-75
2021/06/12 06:03:42;;;;;;;1.65;1.40;;;19.20;74.40;;;;;;5035356;28;20025;-76
2021/06/12 06:06:08;;;;;;;1.98;1.60;;;19.30;74.30;;;;;;5035852;28;20483;-73
2021/06/12 06:08:35;;;;;;;1.52;1.42;;;19.40;74.20;;;;;;5036065;28;20373;-75
2021/06/12 06:11:01;;;;;;;1.77;1.20;;;19.50;74.10;;;;;;5035745;28;20038;-74
2021/06/12 06:13:26;;;;;;;1.55;1.20;;;19.50;74.00;;;;;;5035687;28;20043;-75
2021/06/12 06:15:52;;;;;;;2.47;1.50;;;19.60;73.90;;;;;;5035759;28;20444;-76
2021/06/12 06:18:17;;;;;;;1.60;1.13;;;19.60;74.00;;;;;;5035018;28;20018;-76
2021/06/12 06:20:44;;;;;;;1.73;1.63;;;19.50;74.00;;;;;;5035602;28;20101;-76
2021/06/12 06:23:10;;;;;;;1.67;1.58;;;19.60;74.00;;;;;;5035574;28;20025;-76
2021/06/12 06:25:36;;;;;;;2.10;1.50;;;19.50;74.20;;;;;;5016863;28;20034;-75
2021/06/12 06:28:02;;;;;;;1.83;1.55;;;19.50;74.30;;;;;;5035625;28;20053;-76
2021/06/12 06:30:28;;;;;;;1.50;1.40;;;19.50;74.20;;;;;;5035028;28;20046;-76
2021/06/12 06:32:53;;;;;;;2.10;1.35;;;19.60;74.00;;;;;;5034988;28;20014;-75
2021/06/12 06:35:19;;;;;;;2.45;1.35;;;19.70;73.80;;;;;;5035219;28;20033;-75
2021/06/12 06:37:45;;;;;;;2.17;1.40;;;19.70;73.60;;;;;;5017444;28;20028;-75
2021/06/12 06:40:14;;;;;;;2.08;1.75;;;19.80;73.70;;;;;;5017383;28;20037;-74
2021/06/12 06:42:41;;;;;;;;;;;19.80;73.60;;;;;;5035632;28;20026;-74
2021/06/12 06:45:07;;;;;;;1.05;0.95;;;19.90;73.40;;;;;;5035243;28;19912;-75
2021/06/12 06:47:33;;;;;;;1.27;1.13;;;19.90;73.30;;;;;;5034637;28;20029;-75
2021/06/12 06:49:59;;;;;;;1.38;1.08;;;19.90;73.20;;;;;;5034765;28;20033;-78
2021/06/12 06:52:24;;;;;;;1.25;1.00;;;19.90;73.00;;;;;;5034924;28;20025;-74
2021/06/12 06:54:50;;;;;;;1.55;1.40;;;20.00;72.90;;;;;;5035009;28;20021;-75
2021/06/12 06:57:16;;;;;;;2.83;1.15;;;20.10;72.80;;;;;;5034940;28;20108;-75
2021/06/12 06:59:42;;;;;;;0.90;0.90;;;20.20;73.40;;;;;;5034812;28;20029;-76
2021/06/12 07:02:07;;;;;;;0.70;0.70;;;20.20;72.50;;;;;;5016537;28;20021;-74
2021/06/12 07:04:36;;;;;;;1.08;0.98;;;20.30;72.30;;;;;;5034821;28;20029;-76
2021/06/12 07:07:04;;;;;;;0.80;0.65;;;20.40;72.30;;;;;;5034840;28;20061;-75
2021/06/12 07:09:29;;;;;;;1.63;1.15;;;20.50;72.10;;;;;;5034799;28;20100;-74
2021/06/12 07:11:56;;;;;;;0.60;0.60;;;20.50;72.00;;;;;;5034578;28;20463;-80
2021/06/12 07:14:22;;;;;;;1.30;0.95;;;20.50;72.00;;;;;;5034554;28;20108;-78
2021/06/12 07:16:47;;;;;;;1.10;0.90;;;20.60;71.80;;;;;;5034118;28;20048;-74
2021/06/12 07:19:13;;;;;;;0.95;0.90;;;20.70;71.60;;;;;;5035048;28;20060;-75
2021/06/12 07:21:38;;;;;;;1.10;1.00;;;20.80;71.40;;;;;;5034396;28;20021;-75
2021/06/12 07:24:05;;;;;;;0.60;0.60;;;21.00;70.90;;;;;;5034277;28;20025;-75
2021/06/12 07:26:30;;;;;;;0.75;0.73;;;21.20;70.70;;;;;;5034459;28;20087;-75
2021/06/12 07:28:56;;;;;;;0.75;0.75;;;21.30;70.30;;;;;;5034209;28;20025;-75
2021/06/12 07:31:22;;;;;;;1.08;0.98;;;21.20;70.30;;;;;;5033907;28;20437;-76
2021/06/12 07:33:47;;;;;;;1.38;1.00;;;21.20;70.40;;;;;;5034129;28;20377;-73
2021/06/12 07:36:13;;;;;;;0.70;0.70;;;21.20;70.30;;;;;;5034207;28;20374;-76
2021/06/12 07:38:39;;;;;;;0.55;0.55;;;21.20;70.50;;;;;;5033959;28;20021;-75
2021/06/12 07:41:04;;;;;;;0.45;0.45;;;21.20;70.30;;;;;;5034084;28;20021;-75
2021/06/12 07:43:30;;;;;;;1.20;1.10;;;21.10;70.20;;;;;;5034027;28;20133;-75
2021/06/12 07:45:56;;;;;;;1.00;0.88;;;21.10;70.20;;;;;;5033620;28;20029;-75
2021/06/12 07:48:21;;;;;;;1.08;0.90;;;21.10;70.10;;;;;;5033836;28;20037;-76
2021/06/12 07:50:47;;;;;;;0.68;0.68;;;21.10;70.00;;;;;;5034027;28;20036;-74
2021/06/12 07:53:13;;;;;;;0.68;0.68;;;21.20;69.80;;;;;;5033804;28;20022;-76
2021/06/12 07:55:38;;;;;;;0.68;0.60;;;21.30;69.60;;;;;;5033891;28;20021;-76
2021/06/12 07:58:04;;;;;;;1.50;1.05;;;21.20;69.40;;;;;;5016198;28;20470;-73
2021/06/12 08:00:30;;;;;;;2.15;1.08;;;21.10;69.50;;;;;;5033128;28;20104;-74
2021/06/12 08:02:56;;;;;;;1.00;1.00;;;21.10;69.60;;;;;;5033566;28;20480;-73
2021/06/12 08:05:21;;;;;;;2.15;0.90;;;21.00;69.60;;;;;;5033635;28;20470;-73
2021/06/12 08:07:47;;;;;;;1.35;1.10;;;21.00;69.50;;;;;;5033697;28;20104;-75
2021/06/12 08:10:13;;;;;;;1.67;1.08;;;21.00;69.50;;;;;;5033484;28;20432;-75
2021/06/12 08:12:42;;;;;;;0.80;0.80;;;21.00;69.10;;;;;;5033426;28;20025;-73
2021/06/12 08:15:09;;;;;;;1.10;0.90;;;21.10;68.90;;;;;;5032984;28;20022;-77
2021/06/12 08:17:35;;;;;;;1.38;1.10;;;21.20;68.70;;;;;;5033391;28;20080;-76
2021/06/12 08:20:01;;;;;;;1.05;1.00;;;21.20;68.40;;;;;;5033450;28;20029;-79
2021/06/12 08:22:27;;;;;;;0.77;0.77;;;21.30;68.30;;;;;;5033470;28;20036;-77
2021/06/12 08:24:53;;;;;;;0.90;0.90;;;21.40;68.20;;;;;;5033508;28;20025;-78
2021/06/12 08:27:18;;;;;;;0.60;0.60;;;21.50;67.60;;;;;;5033268;28;20025;-77
2021/06/12 08:29:44;;;;;;;0.95;0.85;;;21.60;67.60;;;;;;5032565;28;20421;-75
2021/06/12 08:32:11;;;;;;;1.10;0.90;;;21.60;67.60;;;;;;5033211;28;20056;-75
2021/06/12 08:34:37;;;;;;;0.95;0.80;;;21.60;67.50;;;;;;5033319;28;20076;-74
2021/06/12 08:37:03;;;;;;;2.92;0.88;;;21.60;67.30;;;;;;5033211;28;20422;-76
2021/06/12 08:39:30;;;;;;;0.95;0.90;;;21.60;67.30;;;;;;5033280;28;20022;-73
2021/06/12 08:41:56;;;;;;;1.13;1.02;;;21.60;67.40;;;;;;5033090;28;20025;-76
2021/06/12 08:44:23;;;;;;;1.17;0.57;;;21.60;67.20;;;;;;5032759;28;20036;-73
2021/06/12 08:46:50;;;;;;;0.70;0.70;;;21.70;67.10;;;;;;5032999;28;20052;-75
2021/06/12 08:49:16;;;;;;;0.98;0.88;;;21.70;67.00;;;;;;5035689;28;20064;-77
2021/06/12 08:51:42;;;;;;;0.93;0.80;;;21.80;66.70;;;;;;5021814;28;20047;-80
2021/06/12 08:54:09;;;;;;;2.03;0.93;;;22.00;66.00;;;;;;5039692;28;20018;-76
2021/06/12 08:56:35;;;;;;;0.75;0.70;;;22.00;66.10;;;;;;5039652;28;20029;-77
2021/06/12 08:59:01;;;;;;;0.77;0.77;;;22.00;66.00;;;;;;5039097;28;20022;-77
2021/06/12 09:01:26;;;;;;;1.20;1.10;;;22.00;66.00;;;;;;5039622;28;20025;-75
2021/06/12 09:03:52;;;;;;;1.05;0.95;;;22.00;66.00;;;;;;5039520;28;20065;-74
2021/06/12 09:06:20;;;;;;;1.35;0.82;;;21.90;66.00;;;;;;5039532;28;20549;-73
2021/06/12 09:08:46;;;;;;;3.67;1.30;;;21.90;66.00;;;;;;5039511;28;20113;-75
2021/06/12 09:11:16;;;;;;;0.93;0.80;;;21.90;65.70;;;;;;5021647;28;20493;-76
2021/06/12 09:13:42;;;;;;;1.02;0.93;;;21.90;65.40;;;;;;5038976;28;20067;-77
2021/06/12 09:16:38;;;;;;;2.17;0.93;;;22.00;65.30;;;;;;5039378;28;20112;-76
2021/06/12 09:19:10;;;;;;;0.70;0.70;;;22.10;65.70;;;;;;5039504;28;20087;-77
2021/06/12 09:21:48;;;;;;;1.80;0.93;;;22.20;64.60;;;;;;5021578;28;20025;-76
2021/06/12 09:24:35;;;;;;;1.10;1.00;;;22.30;64.50;;;;;;5039385;28;20500;-76
2021/06/12 09:27:02;;;;;;;0.88;0.88;;;22.20;64.60;;;;;;5038876;28;20437;-76
2021/06/12 09:29:41;;;;;;;0.90;0.90;;;22.20;65.20;;;;;;5039160;28;20573;-76
2021/06/12 09:32:10;;;;;;;1.38;1.27;;;22.30;64.30;;;;;;5039223;28;20029;-77
2021/06/12 09:34:36;;;;;;;;;;;22.20;64.40;;;;;;5039633;28;20018;-77
2021/06/12 09:37:14;;;;;;;0.93;0.80;;;22.20;64.80;;;;;;5039361;28;20258;-76
2021/06/12 09:39:40;;;;;;;0.85;0.85;;;22.10;64.70;;;;;;5039204;28;20032;-76
2021/06/12 09:42:06;;;;;;;1.13;1.00;;;22.10;64.60;;;;;;5020823;28;20022;-77
2021/06/12 09:44:38;;;;;;;0.65;0.60;;;22.10;64.60;;;;;;5039428;28;20382;-77
2021/06/12 09:47:16;;;;;;;0.90;0.90;;;22.00;64.50;;;;;;5039140;28;20052;-77
2021/06/12 09:49:42;;;;;;;1.33;1.10;;;21.90;64.60;;;;;;5039109;28;20033;-76
2021/06/12 09:52:09;;;;;;;2.05;1.38;;;21.80;64.60;;;;;;5039034;28;20186;-76
2021/06/12 09:54:39;;;;;;;1.00;1.00;;;21.80;64.60;;;;;;5039187;28;20492;-77
2021/06/12 09:57:06;;;;;;;2.35;1.60;;;21.80;64.40;;;;;;5038616;28;20112;-79
2021/06/12 09:59:50;;;;;;;1.55;1.20;;;21.80;64.00;;;;;;5039067;28;20029;-77
2021/06/12 10:02:55;;;;;;;0.93;0.90;;;21.90;64.00;;;;;;5035908;28;20105;-77
2021/06/12 10:05:22;;;;;;;1.42;1.30;;;21.90;63.80;;;;;;4975021;28;20042;-76
2021/06/12 10:07:49;;;;;;;1.52;1.42;;;21.90;63.60;;;;;;4974904;28;20031;-75
2021/06/12 10:10:16;;;;;;;1.13;1.02;;;21.90;63.20;;;;;;4958103;28;20114;-76
2021/06/12 10:12:43;;;;;;;1.23;1.08;;;22.00;63.30;;;;;;4974904;28;20565;-75
2021/06/12 10:15:11;;;;;;;1.73;1.10;;;21.90;63.10;;;;;;4974890;28;20101;-76
2021/06/12 10:17:47;;;;;;;1.40;1.30;;;21.90;63.30;;;;;;4974722;28;20522;-75
2021/06/12 10:20:16;;;;;;;1.48;1.10;;;21.90;62.90;;;;;;4974831;28;20015;-75
2021/06/12 10:22:44;;;;;;;1.30;1.15;;;22.20;62.80;;;;;;4974696;28;20491;-76
2021/06/12 10:25:11;;;;;;;1.10;1.00;;;22.30;62.30;;;;;;4974129;28;20096;-76
2021/06/12 10:27:39;;;;;;;1.85;1.58;;;22.50;61.90;;;;;;4974474;28;20113;-76
2021/06/12 10:30:10;;;;;;;1.80;1.50;;;22.50;61.20;;;;;;4974162;28;20046;-76
2021/06/12 10:32:42;;;;;;;1.50;1.30;;;22.40;61.70;;;;;;4974594;28;20130;-76
2021/06/12 10:35:08;;;;;;;1.30;1.20;;;22.40;61.90;;;;;;4981515;28;20399;-75
2021/06/12 10:38:13;;;;;;;1.95;1.20;;;22.60;61.90;;;;;;5035072;28;20022;-76
2021/06/12 10:40:41;;;;;;;1.45;1.15;;;22.60;61.70;;;;;;5034738;28;20497;-76
2021/06/12 10:43:15;;;;;;;1.00;0.90;;;22.60;61.50;;;;;;5035310;28;20030;-77
2021/06/12 10:45:42;;;;;;;1.40;1.10;;;22.40;61.80;;;;;;5035097;28;20039;-76
2021/06/12 10:48:08;;;;;;;1.23;0.90;;;22.20;62.10;;;;;;5034954;28;20072;-76
2021/06/12 10:50:40;;;;;;;1.17;1.10;;;22.20;62.10;;;;;;5017040;28;20038;-77
2021/06/12 10:53:33;;;;;;;1.40;1.10;;;22.10;62.30;;;;;;5016696;28;20022;-77
2021/06/12 10:56:03;;;;;;;1.20;1.10;;;22.00;62.40;;;;;;5035018;28;20124;-76
2021/06/12 10:58:34;;;;;;;1.20;1.08;;;21.90;62.60;;;;;;5034699;28;20030;-77
2021/06/12 11:01:08;;;;;;;1.10;0.80;;;21.90;62.30;;;;;;5017053;28;20063;-76
2021/06/12 11:03:58;;;;;;;1.10;1.00;;;21.90;62.10;;;;;;5034662;28;20048;-75
2021/06/12 11:06:36;;;;;;;1.63;1.10;;;21.90;62.00;;;;;;5034588;28;20493;-74
2021/06/12 11:09:20;;;;;;;1.20;0.98;;;21.90;62.00;;;;;;5016451;28;20021;-76
2021/06/12 11:11:56;;;;;;;3.92;1.92;;;21.90;61.60;;;;;;5034229;28;20079;-77
2021/06/12 11:14:22;;;;;;;4.03;1.90;;;21.70;61.30;;;;;;5034438;28;20048;-76
2021/06/12 11:19:39;;;;;;;2.22;1.30;;;21.70;61.30;;;;;;5034606;28;20514;-75
2021/06/12 11:22:40;;;;;;;1.52;1.10;;;21.80;61.20;;;;;;5034134;28;20032;-75
2021/06/12 11:25:09;;;;;;;1.88;1.02;;;22.20;61.00;;;;;;4973444;28;20039;-79
2021/06/12 11:27:38;;;;;;;1.40;1.00;;;22.20;60.20;;;;;;4973435;28;20555;-76
2021/06/12 11:30:14;;;;;;;1.40;1.10;;;22.40;60.00;;;;;;4973536;28;20305;-77
2021/06/12 11:32:43;;;;;;;1.48;1.17;;;22.60;59.60;;;;;;4973276;28;20055;-80
2021/06/12 11:35:10;;;;;;;0.85;0.80;;;23.10;59.20;;;;;;4973251;28;20138;-78
2021/06/12 11:37:36;;;;;;;0.82;0.82;;;23.70;58.10;;;;;;4972797;28;20583;-78
2021/06/12 11:40:07;;;;;;;1.88;1.20;;;24.30;57.30;;;;;;4973234;28;20038;-77
2021/06/12 11:42:44;;;;;;;0.88;0.88;;;24.50;56.90;;;;;;4972914;28;20035;-75
2021/06/12 11:45:34;;;;;;;2.65;1.98;;;24.70;56.30;;;;;;4973356;28;20027;-79
2021/06/12 11:48:20;;;;;;;1.30;1.08;;;24.50;56.90;;;;;;4956856;28;20566;-79
2021/06/12 11:50:47;;;;;;;1.63;1.40;;;24.60;56.70;;;;;;4973100;28;20039;-75
2021/06/12 11:53:14;;;;;;;3.90;1.20;;;24.10;57.10;;;;;;4973619;28;20095;-77
2021/06/12 11:55:40;;;;;;;1.10;0.93;;;23.60;57.80;;;;;;4973373;28;20110;-77
2021/06/12 11:58:06;;;;;;;1.08;0.85;;;23.60;58.30;;;;;;4972991;28;20508;-77
2021/06/12 12:00:33;;;;;;;2.50;1.20;;;23.60;58.20;;;;;;5001302;28;20124;-77
2021/06/12 12:03:18;;;;;;;0.70;0.70;;;24.10;57.70;;;;;;5033685;28;20033;-76
2021/06/12 12:05:58;;;;;;;1.98;1.20;;;24.50;56.80;;;;;;5033124;28;20017;-78
2021/06/12 12:08:24;;;;;;;2.05;0.90;;;24.30;56.60;;;;;;5033656;28;20029;-78
2021/06/12 12:10:55;;;;;;;0.80;0.80;;;23.80;57.80;;;;;;5033451;28;20038;-77
2021/06/12 12:13:39;;;;;;;0.63;0.63;;;24.10;57.50;;;;;;5033427;28;20025;-77
2021/06/12 12:16:17;;;;;;;1.23;1.10;;;24.60;56.70;;;;;;5033577;28;20025;-77
2021/06/12 12:18:57;;;;;;;0.82;0.82;;;24.40;56.60;;;;;;5015635;28;20025;-77
2021/06/12 12:21:38;;;;;;;0.60;0.60;;;23.70;57.50;;;;;;5033152;28;20045;-76
2021/06/12 12:24:07;;;;;;;1.88;1.27;;;23.60;58.10;;;;;;5032540;28;20036;-76
2021/06/12 12:26:32;;;;;;;1.88;0.93;;;23.80;57.40;;;;;;5033325;28;20028;-76
2021/06/12 12:29:06;;;;;;;0.77;0.63;;;23.80;57.30;;;;;;5033159;28;20021;-75
2021/06/12 12:31:33;;;;;;;1.00;0.85;;;24.40;56.40;;;;;;5033417;28;20042;-78
2021/06/12 12:34:01;;;;;;;2.13;1.40;;;24.50;55.50;;;;;;5033164;28;20029;-79
2021/06/12 12:36:28;;;;;;;1.83;1.15;;;23.90;56.10;;;;;;5032327;28;20024;-78
2021/06/12 12:39:04;;;;;;;0.98;0.95;;;23.80;56.40;;;;;;5015405;28;20474;-79
2021/06/12 12:41:31;;;;;;;1.30;1.20;;;24.20;55.80;;;;;;5032700;28;20013;-77
2021/06/12 12:44:26;;;;;;;1.95;1.05;;;24.40;55.30;;;;;;5032875;28;20020;-78
2021/06/12 12:46:53;;;;;;;1.58;1.38;;;24.50;55.00;;;;;;5016131;28;20033;-76
2021/06/12 12:49:22;;;;;;;1.42;1.33;;;24.30;54.40;;;;;;5014925;28;20061;-77
2021/06/12 12:51:51;;;;;;;2.22;1.52;;;24.50;54.20;;;;;;5033079;28;20063;-78
2021/06/12 12:54:17;;;;;;;1.08;0.98;;;24.70;53.50;;;;;;5032959;28;20097;-78
2021/06/12 12:56:56;;;;;;;2.15;1.10;;;25.10;53.00;;;;;;5032896;28;20552;-79
2021/06/12 12:59:37;;;;;;;2.08;0.80;;;25.30;52.80;;;;;;5032985;28;20556;-76